sensor_id;sensor_type;location;lat;lon;timestamp;P1;durP1;ratioP1;P2;durP2;ratioP2
34767;SDS011;21755;43.608;1.236;2023-06-14T00:02:11;7.45;;;3.13;;
34767;SDS011;21755;43.608;1.236;2023-06-14T00:04:37;5.13;;;3.60;;
34767;SDS011;21755;43.608;1.236;2023-06-14T00:07:05;6.18;;;4.25;;
34767;SDS011;21755;43.608;1.236;2023-06-14T00:09:33;8.13;;;5.30;;
34767;SDS011;21755;43.608;1.236;2023-06-14T00:11:59;11.15;;;4.88;;
34767;SDS011;21755;43.608;1.236;2023-06-14T00:14:25;10.27;;;5.18;;
34767;SDS011;21755;43.608;1.236;2023-06-14T00:16:51;12.80;;;6.18;;
34767;SDS011;21755;43.608;1.236;2023-06-14T00:19:24;9.98;;;6.20;;
34767;SDS011;21755;43.608;1.236;2023-06-14T00:21:50;7.07;;;5.45;;
34767;SDS011;21755;43.608;1.236;2023-06-14T00:24:18;10.95;;;6.55;;
34767;SDS011;21755;43.608;1.236;2023-06-14T00:26:44;11.60;;;5.97;;
34767;SDS011;21755;43.608;1.236;2023-06-14T00:29:10;10.30;;;6.13;;
34767;SDS011;21755;43.608;1.236;2023-06-14T00:31:36;10.15;;;6.88;;
34767;SDS011;21755;43.608;1.236;2023-06-14T00:34:02;10.93;;;7.30;;
34767;SDS011;21755;43.608;1.236;2023-06-14T00:36:28;16.55;;;7.32;;
34767;SDS011;21755;43.608;1.236;2023-06-14T00:38:54;16.10;;;7.15;;
34767;SDS011;21755;43.608;1.236;2023-06-14T00:41:21;13.63;;;7.13;;
34767;SDS011;21755;43.608;1.236;2023-06-14T00:43:47;15.23;;;6.55;;
34767;SDS011;21755;43.608;1.236;2023-06-14T00:46:13;10.23;;;6.88;;
34767;SDS011;21755;43.608;1.236;2023-06-14T00:48:39;10.18;;;6.90;;
34767;SDS011;21755;43.608;1.236;2023-06-14T00:51:05;10.77;;;6.68;;
34767;SDS011;21755;43.608;1.236;2023-06-14T00:53:32;9.60;;;6.43;;
34767;SDS011;21755;43.608;1.236;2023-06-14T00:56:01;11.15;;;7.07;;
34767;SDS011;21755;43.608;1.236;2023-06-14T00:58:27;15.50;;;7.35;;
34767;SDS011;21755;43.608;1.236;2023-06-14T01:00:54;14.02;;;7.18;;
34767;SDS011;21755;43.608;1.236;2023-06-14T01:03:21;13.02;;;6.95;;
34767;SDS011;21755;43.608;1.236;2023-06-14T01:05:49;14.65;;;6.85;;
34767;SDS011;21755;43.608;1.236;2023-06-14T01:09:10;15.25;;;7.25;;
34767;SDS011;21755;43.608;1.236;2023-06-14T01:11:28;11.13;;;7.13;;
34767;SDS011;21755;43.608;1.236;2023-06-14T01:13:58;13.05;;;7.47;;
34767;SDS011;21755;43.608;1.236;2023-06-14T01:16:27;14.70;;;7.57;;
34767;SDS011;21755;43.608;1.236;2023-06-14T01:18:54;11.15;;;6.47;;
34767;SDS011;21755;43.608;1.236;2023-06-14T01:21:23;19.75;;;7.93;;
34767;SDS011;21755;43.608;1.236;2023-06-14T01:23:50;9.20;;;7.15;;
34767;SDS011;21755;43.608;1.236;2023-06-14T01:26:19;11.68;;;7.03;;
34767;SDS011;21755;43.608;1.236;2023-06-14T01:28:46;13.57;;;7.57;;
34767;SDS011;21755;43.608;1.236;2023-06-14T01:31:16;12.43;;;7.03;;
34767;SDS011;21755;43.608;1.236;2023-06-14T01:33:46;10.02;;;6.63;;
34767;SDS011;21755;43.608;1.236;2023-06-14T01:36:17;12.98;;;6.72;;
34767;SDS011;21755;43.608;1.236;2023-06-14T01:38:45;12.07;;;7.32;;
34767;SDS011;21755;43.608;1.236;2023-06-14T01:41:14;11.98;;;7.28;;
34767;SDS011;21755;43.608;1.236;2023-06-14T01:43:40;8.13;;;6.32;;
34767;SDS011;21755;43.608;1.236;2023-06-14T01:46:08;13.50;;;7.00;;
34767;SDS011;21755;43.608;1.236;2023-06-14T01:48:34;9.30;;;7.13;;
34767;SDS011;21755;43.608;1.236;2023-06-14T01:51:01;13.68;;;6.53;;
34767;SDS011;21755;43.608;1.236;2023-06-14T01:53:27;11.77;;;6.40;;
34767;SDS011;21755;43.608;1.236;2023-06-14T01:55:53;11.88;;;7.03;;
34767;SDS011;21755;43.608;1.236;2023-06-14T01:58:19;13.60;;;6.18;;
34767;SDS011;21755;43.608;1.236;2023-06-14T02:00:46;10.73;;;6.47;;
34767;SDS011;21755;43.608;1.236;2023-06-14T02:03:12;11.57;;;6.72;;
34767;SDS011;21755;43.608;1.236;2023-06-14T02:05:38;9.07;;;6.72;;
34767;SDS011;21755;43.608;1.236;2023-06-14T02:08:06;10.43;;;6.03;;
34767;SDS011;21755;43.608;1.236;2023-06-14T02:10:32;9.15;;;7.03;;
34767;SDS011;21755;43.608;1.236;2023-06-14T02:12:59;10.10;;;6.38;;
34767;SDS011;21755;43.608;1.236;2023-06-14T02:15:25;17.17;;;6.65;;
34767;SDS011;21755;43.608;1.236;2023-06-14T02:17:59;9.35;;;6.25;;
34767;SDS011;21755;43.608;1.236;2023-06-14T02:20:26;9.55;;;6.22;;
34767;SDS011;21755;43.608;1.236;2023-06-14T02:22:52;12.35;;;6.20;;
34767;SDS011;21755;43.608;1.236;2023-06-14T02:25:18;10.05;;;7.00;;
34767;SDS011;21755;43.608;1.236;2023-06-14T02:27:44;16.75;;;7.65;;
34767;SDS011;21755;43.608;1.236;2023-06-14T02:30:10;11.18;;;7.18;;
34767;SDS011;21755;43.608;1.236;2023-06-14T02:32:37;10.98;;;6.53;;
34767;SDS011;21755;43.608;1.236;2023-06-14T02:35:03;15.13;;;7.03;;
34767;SDS011;21755;43.608;1.236;2023-06-14T02:37:30;11.73;;;6.68;;
34767;SDS011;21755;43.608;1.236;2023-06-14T02:39:56;13.65;;;6.38;;
34767;SDS011;21755;43.608;1.236;2023-06-14T02:42:22;17.60;;;7.03;;
34767;SDS011;21755;43.608;1.236;2023-06-14T02:44:48;13.02;;;6.45;;
34767;SDS011;21755;43.608;1.236;2023-06-14T02:47:19;11.07;;;6.05;;
34767;SDS011;21755;43.608;1.236;2023-06-14T02:49:45;10.30;;;5.68;;
34767;SDS011;21755;43.608;1.236;2023-06-14T02:52:14;9.63;;;5.20;;
34767;SDS011;21755;43.608;1.236;2023-06-14T02:54:40;12.68;;;6.10;;
34767;SDS011;21755;43.608;1.236;2023-06-14T02:57:07;11.05;;;5.28;;
34767;SDS011;21755;43.608;1.236;2023-06-14T02:59:33;9.75;;;5.13;;
34767;SDS011;21755;43.608;1.236;2023-06-14T03:02:00;10.02;;;5.15;;
34767;SDS011;21755;43.608;1.236;2023-06-14T03:04:26;11.57;;;5.45;;
34767;SDS011;21755;43.608;1.236;2023-06-14T03:06:54;7.47;;;5.50;;
34767;SDS011;21755;43.608;1.236;2023-06-14T03:09:20;10.00;;;5.95;;
34767;SDS011;21755;43.608;1.236;2023-06-14T03:11:46;8.20;;;5.40;;
34767;SDS011;21755;43.608;1.236;2023-06-14T03:14:12;7.90;;;5.50;;
34767;SDS011;21755;43.608;1.236;2023-06-14T03:16:39;13.30;;;6.20;;
34767;SDS011;21755;43.608;1.236;2023-06-14T03:19:06;10.85;;;6.38;;
34767;SDS011;21755;43.608;1.236;2023-06-14T03:21:32;12.73;;;6.75;;
34767;SDS011;21755;43.608;1.236;2023-06-14T03:23:59;10.93;;;7.18;;
34767;SDS011;21755;43.608;1.236;2023-06-14T03:26:27;11.20;;;6.40;;
34767;SDS011;21755;43.608;1.236;2023-06-14T03:28:55;16.83;;;7.68;;
34767;SDS011;21755;43.608;1.236;2023-06-14T03:31:21;14.20;;;7.22;;
34767;SDS011;21755;43.608;1.236;2023-06-14T03:33:48;10.82;;;7.10;;
34767;SDS011;21755;43.608;1.236;2023-06-14T03:36:14;11.32;;;7.93;;
34767;SDS011;21755;43.608;1.236;2023-06-14T03:38:40;12.40;;;6.78;;
34767;SDS011;21755;43.608;1.236;2023-06-14T03:41:07;19.65;;;8.00;;
34767;SDS011;21755;43.608;1.236;2023-06-14T03:43:33;14.57;;;6.95;;
34767;SDS011;21755;43.608;1.236;2023-06-14T03:45:59;13.07;;;6.70;;
34767;SDS011;21755;43.608;1.236;2023-06-14T03:48:25;10.63;;;6.85;;
34767;SDS011;21755;43.608;1.236;2023-06-14T03:50:51;14.55;;;7.60;;
34767;SDS011;21755;43.608;1.236;2023-06-14T03:53:20;14.25;;;7.50;;
34767;SDS011;21755;43.608;1.236;2023-06-14T03:55:48;14.98;;;7.72;;
34767;SDS011;21755;43.608;1.236;2023-06-14T03:58:18;16.02;;;8.30;;
34767;SDS011;21755;43.608;1.236;2023-06-14T04:00:44;16.38;;;8.43;;
34767;SDS011;21755;43.608;1.236;2023-06-14T04:03:11;16.65;;;9.95;;
34767;SDS011;21755;43.608;1.236;2023-06-14T04:05:41;15.82;;;8.85;;
34767;SDS011;21755;43.608;1.236;2023-06-14T04:08:08;19.08;;;9.23;;
34767;SDS011;21755;43.608;1.236;2023-06-14T04:10:34;14.30;;;9.98;;
34767;SDS011;21755;43.608;1.236;2023-06-14T04:13:00;16.85;;;9.77;;
34767;SDS011;21755;43.608;1.236;2023-06-14T04:15:28;17.63;;;9.57;;
34767;SDS011;21755;43.608;1.236;2023-06-14T04:17:59;14.50;;;9.55;;
34767;SDS011;21755;43.608;1.236;2023-06-14T04:20:25;15.88;;;9.60;;
34767;SDS011;21755;43.608;1.236;2023-06-14T04:22:51;16.90;;;10.48;;
34767;SDS011;21755;43.608;1.236;2023-06-14T04:25:18;21.10;;;11.20;;
34767;SDS011;21755;43.608;1.236;2023-06-14T04:27:45;19.33;;;11.02;;
34767;SDS011;21755;43.608;1.236;2023-06-14T04:30:13;19.17;;;11.40;;
34767;SDS011;21755;43.608;1.236;2023-06-14T04:32:42;17.45;;;11.13;;
34767;SDS011;21755;43.608;1.236;2023-06-14T04:35:12;19.10;;;11.43;;
34767;SDS011;21755;43.608;1.236;2023-06-14T04:37:38;18.73;;;12.15;;
34767;SDS011;21755;43.608;1.236;2023-06-14T04:40:07;24.33;;;11.95;;
34767;SDS011;21755;43.608;1.236;2023-06-14T04:42:34;26.80;;;12.82;;
34767;SDS011;21755;43.608;1.236;2023-06-14T04:45:03;23.30;;;11.95;;
34767;SDS011;21755;43.608;1.236;2023-06-14T04:47:29;28.42;;;13.25;;
34767;SDS011;21755;43.608;1.236;2023-06-14T04:49:56;20.98;;;12.88;;
34767;SDS011;21755;43.608;1.236;2023-06-14T04:52:23;27.00;;;12.52;;
34767;SDS011;21755;43.608;1.236;2023-06-14T04:54:54;25.38;;;13.35;;
34767;SDS011;21755;43.608;1.236;2023-06-14T04:57:20;22.55;;;14.05;;
34767;SDS011;21755;43.608;1.236;2023-06-14T04:59:48;23.73;;;12.45;;
34767;SDS011;21755;43.608;1.236;2023-06-14T05:04:49;20.52;;;11.55;;
34767;SDS011;21755;43.608;1.236;2023-06-14T05:07:19;18.75;;;11.98;;
34767;SDS011;21755;43.608;1.236;2023-06-14T05:09:45;21.25;;;12.93;;
34767;SDS011;21755;43.608;1.236;2023-06-14T05:12:11;26.50;;;14.02;;
34767;SDS011;21755;43.608;1.236;2023-06-14T05:14:37;27.45;;;13.15;;
34767;SDS011;21755;43.608;1.236;2023-06-14T05:17:04;28.55;;;13.55;;
34767;SDS011;21755;43.608;1.236;2023-06-14T05:19:31;21.92;;;12.25;;
34767;SDS011;21755;43.608;1.236;2023-06-14T05:21:57;18.95;;;12.23;;
34767;SDS011;21755;43.608;1.236;2023-06-14T05:24:23;26.75;;;15.13;;
34767;SDS011;21755;43.608;1.236;2023-06-14T05:26:49;23.33;;;13.38;;
34767;SDS011;21755;43.608;1.236;2023-06-14T05:29:15;20.77;;;12.68;;
34767;SDS011;21755;43.608;1.236;2023-06-14T05:31:41;26.98;;;13.75;;
34767;SDS011;21755;43.608;1.236;2023-06-14T05:34:07;21.55;;;12.57;;
34767;SDS011;21755;43.608;1.236;2023-06-14T05:36:33;20.23;;;13.43;;
34767;SDS011;21755;43.608;1.236;2023-06-14T05:38:59;25.77;;;12.80;;
34767;SDS011;21755;43.608;1.236;2023-06-14T05:41:26;25.73;;;13.45;;
34767;SDS011;21755;43.608;1.236;2023-06-14T05:43:53;21.25;;;11.80;;
34767;SDS011;21755;43.608;1.236;2023-06-14T05:46:21;22.73;;;12.15;;
34767;SDS011;21755;43.608;1.236;2023-06-14T05:48:49;23.00;;;13.65;;
34767;SDS011;21755;43.608;1.236;2023-06-14T05:51:19;22.42;;;13.13;;
34767;SDS011;21755;43.608;1.236;2023-06-14T05:53:48;23.08;;;13.80;;
34767;SDS011;21755;43.608;1.236;2023-06-14T05:56:14;29.40;;;12.60;;
34767;SDS011;21755;43.608;1.236;2023-06-14T05:58:43;28.60;;;13.75;;
34767;SDS011;21755;43.608;1.236;2023-06-14T06:01:10;25.02;;;14.15;;
34767;SDS011;21755;43.608;1.236;2023-06-14T06:03:36;26.50;;;12.80;;
34767;SDS011;21755;43.608;1.236;2023-06-14T06:06:03;23.40;;;12.07;;
34767;SDS011;21755;43.608;1.236;2023-06-14T06:08:29;21.27;;;12.10;;
34767;SDS011;21755;43.608;1.236;2023-06-14T06:10:56;23.95;;;12.20;;
34767;SDS011;21755;43.608;1.236;2023-06-14T06:13:22;22.88;;;12.95;;
34767;SDS011;21755;43.608;1.236;2023-06-14T06:15:50;23.65;;;13.02;;
34767;SDS011;21755;43.608;1.236;2023-06-14T06:18:16;20.73;;;12.23;;
34767;SDS011;21755;43.608;1.236;2023-06-14T06:20:42;20.63;;;12.13;;
34767;SDS011;21755;43.608;1.236;2023-06-14T06:23:09;15.55;;;10.77;;
34767;SDS011;21755;43.608;1.236;2023-06-14T06:25:35;21.73;;;11.82;;
34767;SDS011;21755;43.608;1.236;2023-06-14T06:28:01;25.02;;;12.45;;
34767;SDS011;21755;43.608;1.236;2023-06-14T06:30:27;24.67;;;11.68;;
34767;SDS011;21755;43.608;1.236;2023-06-14T06:32:53;24.55;;;12.35;;
34767;SDS011;21755;43.608;1.236;2023-06-14T06:35:20;21.27;;;11.48;;
34767;SDS011;21755;43.608;1.236;2023-06-14T06:37:46;24.83;;;11.73;;
34767;SDS011;21755;43.608;1.236;2023-06-14T06:40:12;26.02;;;11.45;;
34767;SDS011;21755;43.608;1.236;2023-06-14T06:42:38;22.30;;;11.93;;
34767;SDS011;21755;43.608;1.236;2023-06-14T06:45:04;21.55;;;12.13;;
34767;SDS011;21755;43.608;1.236;2023-06-14T06:47:31;24.00;;;11.68;;
34767;SDS011;21755;43.608;1.236;2023-06-14T06:49:57;24.98;;;11.75;;
34767;SDS011;21755;43.608;1.236;2023-06-14T06:52:22;21.73;;;11.77;;
34767;SDS011;21755;43.608;1.236;2023-06-14T06:54:48;16.70;;;12.13;;
34767;SDS011;21755;43.608;1.236;2023-06-14T06:57:15;16.80;;;11.02;;
34767;SDS011;21755;43.608;1.236;2023-06-14T06:59:41;19.77;;;11.13;;
34767;SDS011;21755;43.608;1.236;2023-06-14T07:02:07;24.80;;;12.18;;
34767;SDS011;21755;43.608;1.236;2023-06-14T07:04:33;20.65;;;12.35;;
34767;SDS011;21755;43.608;1.236;2023-06-14T07:06:59;22.65;;;11.15;;
34767;SDS011;21755;43.608;1.236;2023-06-14T07:09:25;22.83;;;11.38;;
34767;SDS011;21755;43.608;1.236;2023-06-14T07:11:51;16.80;;;10.95;;
34767;SDS011;21755;43.608;1.236;2023-06-14T07:14:17;21.83;;;11.40;;
34767;SDS011;21755;43.608;1.236;2023-06-14T07:16:43;24.60;;;11.40;;
34767;SDS011;21755;43.608;1.236;2023-06-14T07:19:09;20.45;;;11.23;;
34767;SDS011;21755;43.608;1.236;2023-06-14T07:21:35;24.50;;;10.45;;
34767;SDS011;21755;43.608;1.236;2023-06-14T07:24:05;20.48;;;10.50;;
34767;SDS011;21755;43.608;1.236;2023-06-14T07:26:32;21.02;;;11.05;;
34767;SDS011;21755;43.608;1.236;2023-06-14T07:28:59;21.73;;;11.32;;
34767;SDS011;21755;43.608;1.236;2023-06-14T07:31:25;16.30;;;10.27;;
34767;SDS011;21755;43.608;1.236;2023-06-14T07:33:51;26.23;;;10.32;;
34767;SDS011;21755;43.608;1.236;2023-06-14T07:36:17;26.73;;;11.05;;
34767;SDS011;21755;43.608;1.236;2023-06-14T07:38:43;28.13;;;11.55;;
34767;SDS011;21755;43.608;1.236;2023-06-14T07:41:10;24.50;;;11.75;;
34767;SDS011;21755;43.608;1.236;2023-06-14T07:43:35;21.33;;;10.02;;
34767;SDS011;21755;43.608;1.236;2023-06-14T07:46:01;19.90;;;11.38;;
34767;SDS011;21755;43.608;1.236;2023-06-14T07:48:27;24.27;;;11.35;;
34767;SDS011;21755;43.608;1.236;2023-06-14T07:50:53;16.77;;;10.23;;
34767;SDS011;21755;43.608;1.236;2023-06-14T07:53:20;21.75;;;10.63;;
34767;SDS011;21755;43.608;1.236;2023-06-14T07:55:46;17.83;;;10.18;;
34767;SDS011;21755;43.608;1.236;2023-06-14T07:58:13;20.58;;;9.45;;
34767;SDS011;21755;43.608;1.236;2023-06-14T08:00:40;20.23;;;10.55;;
34767;SDS011;21755;43.608;1.236;2023-06-14T08:03:06;16.83;;;9.70;;
34767;SDS011;21755;43.608;1.236;2023-06-14T08:05:32;22.42;;;10.18;;
34767;SDS011;21755;43.608;1.236;2023-06-14T08:07:59;20.50;;;11.15;;
34767;SDS011;21755;43.608;1.236;2023-06-14T08:10:25;20.75;;;10.30;;
34767;SDS011;21755;43.608;1.236;2023-06-14T08:12:51;19.05;;;9.27;;
34767;SDS011;21755;43.608;1.236;2023-06-14T08:15:17;20.05;;;9.82;;
34767;SDS011;21755;43.608;1.236;2023-06-14T08:17:43;18.48;;;9.55;;
34767;SDS011;21755;43.608;1.236;2023-06-14T08:20:10;22.70;;;9.88;;
34767;SDS011;21755;43.608;1.236;2023-06-14T08:22:36;20.42;;;10.43;;
34767;SDS011;21755;43.608;1.236;2023-06-14T08:25:03;21.42;;;10.88;;
34767;SDS011;21755;43.608;1.236;2023-06-14T08:27:29;22.63;;;10.57;;
34767;SDS011;21755;43.608;1.236;2023-06-14T08:29:56;18.27;;;9.77;;
34767;SDS011;21755;43.608;1.236;2023-06-14T08:32:22;23.67;;;10.48;;
34767;SDS011;21755;43.608;1.236;2023-06-14T08:34:48;19.33;;;9.40;;
34767;SDS011;21755;43.608;1.236;2023-06-14T08:37:14;26.77;;;9.57;;
34767;SDS011;21755;43.608;1.236;2023-06-14T08:39:40;17.45;;;9.63;;
34767;SDS011;21755;43.608;1.236;2023-06-14T08:42:07;14.30;;;9.15;;
34767;SDS011;21755;43.608;1.236;2023-06-14T08:44:35;21.95;;;9.68;;
34767;SDS011;21755;43.608;1.236;2023-06-14T08:47:01;24.15;;;11.15;;
34767;SDS011;21755;43.608;1.236;2023-06-14T08:49:28;21.17;;;10.85;;
34767;SDS011;21755;43.608;1.236;2023-06-14T08:51:59;18.83;;;9.70;;
34767;SDS011;21755;43.608;1.236;2023-06-14T08:54:27;19.73;;;10.70;;
34767;SDS011;21755;43.608;1.236;2023-06-14T08:56:55;20.17;;;10.15;;
34767;SDS011;21755;43.608;1.236;2023-06-14T08:59:27;20.38;;;9.98;;
34767;SDS011;21755;43.608;1.236;2023-06-14T09:01:54;25.45;;;10.82;;
34767;SDS011;21755;43.608;1.236;2023-06-14T09:04:23;19.20;;;9.93;;
34767;SDS011;21755;43.608;1.236;2023-06-14T09:06:54;18.92;;;10.10;;
34767;SDS011;21755;43.608;1.236;2023-06-14T09:09:21;16.20;;;9.88;;
34767;SDS011;21755;43.608;1.236;2023-06-14T09:11:51;27.40;;;11.55;;
34767;SDS011;21755;43.608;1.236;2023-06-14T09:14:21;22.42;;;10.90;;
34767;SDS011;21755;43.608;1.236;2023-06-14T09:16:52;21.95;;;11.13;;
34767;SDS011;21755;43.608;1.236;2023-06-14T09:19:21;22.20;;;10.95;;
34767;SDS011;21755;43.608;1.236;2023-06-14T09:21:50;24.17;;;10.32;;
34767;SDS011;21755;43.608;1.236;2023-06-14T09:24:18;23.05;;;11.00;;
34767;SDS011;21755;43.608;1.236;2023-06-14T09:26:46;21.50;;;10.00;;
34767;SDS011;21755;43.608;1.236;2023-06-14T09:29:13;18.70;;;10.23;;
34767;SDS011;21755;43.608;1.236;2023-06-14T09:31:38;19.27;;;10.60;;
34767;SDS011;21755;43.608;1.236;2023-06-14T09:34:04;25.75;;;10.55;;
34767;SDS011;21755;43.608;1.236;2023-06-14T09:36:31;21.90;;;10.55;;
34767;SDS011;21755;43.608;1.236;2023-06-14T09:38:58;21.77;;;10.63;;
34767;SDS011;21755;43.608;1.236;2023-06-14T09:41:41;20.35;;;10.75;;
34767;SDS011;21755;43.608;1.236;2023-06-14T09:44:08;23.13;;;10.88;;
34767;SDS011;21755;43.608;1.236;2023-06-14T09:46:36;18.67;;;9.63;;
34767;SDS011;21755;43.608;1.236;2023-06-14T09:49:03;17.27;;;10.25;;
34767;SDS011;21755;43.608;1.236;2023-06-14T09:51:30;21.33;;;9.75;;
34767;SDS011;21755;43.608;1.236;2023-06-14T09:54:00;17.58;;;10.05;;
